Time;durP1;ratioP1;P1;durP2;ratioP2;P2;SDS_P1;SDS_P2;PMS_P1;PMS_P2;Temp;Humidity;BMP_temperature;BMP_pressure;BME280_temperature;BME280_humidity;BME280_pressure;Samples;Min_cycle;Max_cycle;Signal;HPM_P1;HPM_P2
2023/02/21 02:15:43;;;;;;;100.88;47.97;;;;;;;;;;6266615;28;20068;-72
2023/02/21 02:19:19;;;;;;;99.20;46.83;;;;;;;;;;6268536;28;20355;-74
2023/02/21 02:22:36;;;;;;;100.07;48.08;;;;;;;;;;6250401;28;20057;-74
2023/02/21 02:25:53;;;;;;;99.05;48.13;;;;;;;;;;6265474;28;20041;-74
2023/02/21 02:29:25;;;;;;;103.05;50.30;;;;;;;;;;6264469;28;20341;-74
2023/02/21 02:32:38;;;;;;;99.22;47.97;;;;;;;;;;6269618;28;20049;-73
2023/02/21 02:35:44;;;;;;;101.78;48.38;;;;;;;;;;6267349;28;20158;-74
2023/02/21 02:38:55;;;;;;;104.00;49.60;;;;;;;;;;6264358;28;20060;-73
2023/02/21 02:42:04;;;;;;;100.15;48.22;;;;;;;;;;6265625;28;20049;-74
2023/02/21 02:45:12;;;;;;;105.82;50.50;;;;;;;;;;6263047;28;20061;-74
2023/02/21 02:48:16;;;;;;;96.35;46.92;;;;;;;;;;6265125;28;20049;-74
2023/02/21 02:51:20;;;;;;;96.93;48.35;;;;;;;;;;6263019;28;20108;-73
2023/02/21 02:54:22;;;;;;;96.43;48.30;;;;;;;;;;6266417;28;20057;-74
2023/02/21 02:57:23;;;;;;;103.65;48.28;;;;;;;;;;6265855;28;20060;-74
2023/02/21 03:00:25;;;;;;;97.68;48.22;;;;;;;;;;6262265;28;20095;-74
2023/02/21 03:03:38;;;;;;;97.65;46.85;;;;;;;;;;6267941;28;20040;-74
2023/02/21 03:06:47;;;;;;;103.50;48.55;;;;;;;;;;6265758;28;20053;-74
2023/02/21 03:09:55;;;;;;;106.03;48.60;;;;;;;;;;6265773;28;20056;-71
2023/02/21 03:13:01;;;;;;;100.32;47.63;;;;;;;;;;6263158;28;20045;-73
2023/02/21 03:16:08;;;;;;;99.05;47.13;;;;;;;;;;6265768;28;20041;-74
2023/02/21 03:19:12;;;;;;;99.28;46.53;;;;;;;;;;6266430;28;20041;-74
2023/02/21 03:22:17;;;;;;;98.20;47.10;;;;;;;;;;6261199;28;20072;-73
2023/02/21 03:25:20;;;;;;;103.53;48.70;;;;;;;;;;6265190;28;20318;-74
2023/02/21 03:28:22;;;;;;;101.00;49.35;;;;;;;;;;6263251;28;20057;-74
2023/02/21 03:31:28;;;;;;;107.05;49.50;;;;;;;;;;6268693;28;20044;-71
2023/02/21 03:34:30;;;;;;;100.43;48.50;;;;;;;;;;6265859;28;20078;-73
2023/02/21 03:37:35;;;;;;;106.78;50.38;;;;;;;;;;6266983;28;20076;-73
2023/02/21 03:40:37;;;;;;;98.57;49.08;;;;;;;;;;6263079;28;20351;-71
2023/02/21 03:43:39;;;;;;;102.57;51.80;;;;;;;;;;6263068;28;20372;-73
2023/02/21 03:46:40;;;;;;;101.53;49.15;;;;;;;;;;6266050;28;20059;-76
2023/02/21 03:49:42;;;;;;;105.00;50.92;;;;;;;;;;6267001;28;20045;-73
2023/02/21 03:52:45;;;;;;;97.85;48.97;;;;;;;;;;6266678;28;20057;-77
2023/02/21 03:55:47;;;;;;;103.13;50.85;;;;;;;;;;6263687;28;20053;-78
2023/02/21 03:58:49;;;;;;;102.15;50.13;;;;;;;;;;6263797;28;20059;-74
2023/02/21 04:01:51;;;;;;;101.53;50.65;;;;;;;;;;6263712;28;20053;-75
2023/02/21 04:04:52;;;;;;;104.38;49.42;;;;;;;;;;6262760;28;20059;-76
2023/02/21 04:07:55;;;;;;;108.05;49.88;;;;;;;;;;6261734;28;20076;-76
2023/02/21 04:10:57;;;;;;;107.28;52.17;;;;;;;;;;6264864;28;20053;-76
2023/02/21 04:13:59;;;;;;;104.38;50.58;;;;;;;;;;6264373;28;20136;-75
2023/02/21 04:17:01;;;;;;;103.35;49.63;;;;;;;;;;6262733;28;20051;-75
2023/02/21 04:20:02;;;;;;;103.15;49.03;;;;;;;;;;6263289;28;20049;-77
2023/02/21 04:23:05;;;;;;;103.43;49.72;;;;;;;;;;6265003;28;20269;-78
2023/02/21 04:26:07;;;;;;;101.72;49.70;;;;;;;;;;6265501;28;20041;-75
2023/02/21 04:29:09;;;;;;;99.75;50.30;;;;;;;;;;6267763;28;20070;-75
2023/02/21 04:32:11;;;;;;;104.38;48.80;;;;;;;;;;6267610;28;20057;-76
2023/02/21 04:35:13;;;;;;;100.45;48.97;;;;;;;;;;6268054;28;20130;-76
2023/02/21 04:38:16;;;;;;;105.07;49.45;;;;;;;;;;6268355;28;20346;-76
2023/02/21 04:41:18;;;;;;;99.25;49.45;;;;;;;;;;6267923;28;20049;-76
2023/02/21 04:44:19;;;;;;;103.88;48.42;;;;;;;;;;6265419;28;20073;-75
2023/02/21 04:47:21;;;;;;;102.97;49.60;;;;;;;;;;6266230;28;20090;-72
2023/02/21 04:50:23;;;;;;;99.38;48.83;;;;;;;;;;6267136;28;20052;-74
2023/02/21 04:53:26;;;;;;;97.50;47.22;;;;;;;;;;6266871;28;20233;-74
2023/02/21 04:56:28;;;;;;;102.15;49.60;;;;;;;;;;6267696;28;20045;-74
2023/02/21 04:59:30;;;;;;;97.57;47.92;;;;;;;;;;6270628;28;20051;-73
2023/02/21 05:02:31;;;;;;;96.57;48.58;;;;;;;;;;6266367;28;20056;-73
2023/02/21 05:05:33;;;;;;;96.80;49.15;;;;;;;;;;6267708;28;20110;-72
2023/02/21 05:08:37;;;;;;;105.25;48.80;;;;;;;;;;6268437;28;20244;-73
2023/02/21 05:11:38;;;;;;;103.00;47.38;;;;;;;;;;6270030;28;20283;-71
2023/02/21 05:14:40;;;;;;;93.13;47.40;;;;;;;;;;6268644;28;20053;-74
2023/02/21 05:17:42;;;;;;;99.93;48.90;;;;;;;;;;6266588;28;20091;-73
2023/02/21 05:20:44;;;;;;;97.05;47.28;;;;;;;;;;6266684;28;20341;-73
2023/02/21 05:23:54;;;;;;;104.85;48.90;;;;;;;;;;6267850;28;20064;-73
2023/02/21 05:26:56;;;;;;;95.90;48.40;;;;;;;;;;6271237;28;20234;-72
2023/02/21 05:29:58;;;;;;;102.70;48.33;;;;;;;;;;6270424;28;20057;-73
2023/02/21 05:33:00;;;;;;;104.38;49.65;;;;;;;;;;6264632;28;20116;-70
2023/02/21 05:36:02;;;;;;;89.93;46.20;;;;;;;;;;6267569;28;20069;-73
2023/02/21 05:39:06;;;;;;;101.82;47.55;;;;;;;;;;6265362;28;20041;-73
2023/02/21 05:42:08;;;;;;;95.43;47.13;;;;;;;;;;6267967;28;20045;-74
2023/02/21 05:45:11;;;;;;;96.60;45.90;;;;;;;;;;6266138;28;20068;-73
2023/02/21 05:48:13;;;;;;;98.53;47.70;;;;;;;;;;6268397;28;20252;-74
2023/02/21 05:51:15;;;;;;;91.70;46.75;;;;;;;;;;6267357;28;20061;-73
2023/02/21 05:54:20;;;;;;;91.32;44.92;;;;;;;;;;6267465;28;20098;-74
2023/02/21 05:57:22;;;;;;;87.93;45.28;;;;;;;;;;6264983;28;20083;-73
2023/02/21 06:00:26;;;;;;;89.70;45.60;;;;;;;;;;6266631;28;20041;-71
2023/02/21 06:03:28;;;;;;;84.93;43.17;;;;;;;;;;6265137;28;20283;-73
2023/02/21 06:06:30;;;;;;;89.93;44.72;;;;;;;;;;6264931;28;20056;-73
2023/02/21 06:09:33;;;;;;;91.25;45.17;;;;;;;;;;6266662;28;20051;-70
2023/02/21 06:12:35;;;;;;;96.53;45.60;;;;;;;;;;6264240;28;20053;-71
2023/02/21 06:15:37;;;;;;;92.00;44.85;;;;;;;;;;6264386;28;20047;-72
2023/02/21 06:18:38;;;;;;;98.70;45.38;;;;;;;;;;6264754;28;20053;-75
2023/02/21 06:21:40;;;;;;;87.40;42.45;;;;;;;;;;6266732;28;20049;-70
2023/02/21 06:24:43;;;;;;;91.13;45.33;;;;;;;;;;6263807;28;20061;-73
2023/02/21 06:27:45;;;;;;;85.13;43.92;;;;;;;;;;6265495;28;20084;-70
2023/02/21 06:30:47;;;;;;;85.65;42.17;;;;;;;;;;6266252;28;20128;-71
2023/02/21 06:33:49;;;;;;;93.90;44.08;;;;;;;;;;6270292;28;20232;-71
2023/02/21 06:36:52;;;;;;;86.40;43.92;;;;;;;;;;6272414;28;20049;-71
2023/02/21 06:39:55;;;;;;;90.40;44.08;;;;;;;;;;6264324;28;20244;-70
2023/02/21 06:42:57;;;;;;;89.40;43.50;;;;;;;;;;6268437;28;20049;-72
2023/02/21 06:45:58;;;;;;;89.07;43.50;;;;;;;;;;6268513;28;20057;-71
2023/02/21 06:49:00;;;;;;;91.53;41.67;;;;;;;;;;6269898;28;20049;-71
2023/02/21 06:52:02;;;;;;;86.63;41.97;;;;;;;;;;6267434;28;20283;-71
2023/02/21 06:55:06;;;;;;;85.68;41.55;;;;;;;;;;6268798;28;20442;-71
2023/02/21 06:58:08;;;;;;;77.47;38.28;;;;;;;;;;6266637;28;20057;-71
2023/02/21 07:01:09;;;;;;;79.57;41.15;;;;;;;;;;6268648;28;20059;-70
2023/02/21 07:04:11;;;;;;;76.90;39.40;;;;;;;;;;6266894;28;20044;-71
2023/02/21 07:07:13;;;;;;;78.57;41.05;;;;;;;;;;6262877;28;20073;-71
2023/02/21 07:10:17;;;;;;;60.85;33.72;;;;;;;;;;6262380;28;20095;-71
2023/02/21 07:13:18;;;;;;;60.27;31.97;;;;;;;;;;6263015;28;20356;-71
2023/02/21 07:16:21;;;;;;;51.53;29.45;;;;;;;;;;6262594;28;20063;-71
2023/02/21 07:19:22;;;;;;;44.35;26.80;;;;;;;;;;6261719;28;20108;-71
2023/02/21 07:22:25;;;;;;;48.75;26.83;;;;;;;;;;6263955;28;20053;-71
2023/02/21 07:25:28;;;;;;;46.70;27.58;;;;;;;;;;6262107;28;20057;-72
2023/02/21 07:28:30;;;;;;;46.27;27.20;;;;;;;;;;6260906;28;20322;-71
2023/02/21 07:31:32;;;;;;;42.47;24.75;;;;;;;;;;6262260;28;20352;-71
2023/02/21 07:34:34;;;;;;;43.75;24.25;;;;;;;;;;6264439;28;20046;-70
2023/02/21 07:37:35;;;;;;;44.08;26.92;;;;;;;;;;6264798;28;20359;-70
2023/02/21 07:40:38;;;;;;;38.47;25.35;;;;;;;;;;6263815;28;20053;-71
2023/02/21 07:43:40;;;;;;;36.70;24.00;;;;;;;;;;6264321;28;20099;-71
2023/02/21 07:46:44;;;;;;;39.50;25.75;;;;;;;;;;6264323;28;20057;-71
2023/02/21 07:49:46;;;;;;;40.67;26.27;;;;;;;;;;6264637;28;20048;-70
2023/02/21 07:52:47;;;;;;;45.92;26.33;;;;;;;;;;6261865;28;20245;-70
2023/02/21 07:55:50;;;;;;;44.45;25.75;;;;;;;;;;6261482;28;20078;-71
2023/02/21 07:58:52;;;;;;;44.03;26.83;;;;;;;;;;6263998;28;20061;-71
2023/02/21 08:01:54;;;;;;;41.75;26.33;;;;;;;;;;6264744;28;20064;-72
2023/02/21 08:04:56;;;;;;;42.95;25.77;;;;;;;;;;6263763;28;20140;-71
2023/02/21 08:07:57;;;;;;;48.60;27.63;;;;;;;;;;6264037;28;20044;-71
2023/02/21 08:11:01;;;;;;;44.20;26.40;;;;;;;;;;6261155;28;20059;-70
2023/02/21 08:14:03;;;;;;;42.40;25.77;;;;;;;;;;6261744;28;20049;-70
2023/02/21 08:17:04;;;;;;;44.45;26.35;;;;;;;;;;6264494;28;20053;-71
2023/02/21 08:20:07;;;;;;;45.08;26.77;;;;;;;;;;6262564;28;20053;-71
2023/02/21 08:23:09;;;;;;;41.85;27.13;;;;;;;;;;6262785;28;20056;-72
2023/02/21 08:26:12;;;;;;;52.60;28.98;;;;;;;;;;6266106;28;20057;-71
2023/02/21 08:29:16;;;;;;;52.40;30.70;;;;;;;;;;6263475;28;20577;-72
2023/02/21 08:32:19;;;;;;;49.30;29.15;;;;;;;;;;6263749;28;20080;-72
2023/02/21 08:35:21;;;;;;;48.22;30.90;;;;;;;;;;6261891;28;20057;-71
2023/02/21 08:38:23;;;;;;;56.42;31.58;;;;;;;;;;6265170;28;20057;-70
2023/02/21 08:41:35;;;;;;;63.53;31.55;;;;;;;;;;6263772;28;20245;-71
2023/02/21 08:44:37;;;;;;;57.35;31.90;;;;;;;;;;6265796;28;20065;-72
2023/02/21 08:47:38;;;;;;;59.55;31.88;;;;;;;;;;6263595;28;20072;-70
2023/02/21 08:50:40;;;;;;;50.50;31.50;;;;;;;;;;6263192;28;20378;-72
2023/02/21 08:53:43;;;;;;;57.45;31.80;;;;;;;;;;6263974;28;20053;-71
2023/02/21 08:56:47;;;;;;;56.90;31.15;;;;;;;;;;6263406;28;20046;-71
2023/02/21 08:59:49;;;;;;;;;;;;;;;;;;6263869;28;20048;-71
2023/02/21 09:02:51;;;;;;;55.72;32.65;;;;;;;;;;6263407;28;19925;-72
2023/02/21 09:05:52;;;;;;;58.90;33.00;;;;;;;;;;6265943;28;20110;-71
2023/02/21 09:08:55;;;;;;;52.08;31.77;;;;;;;;;;6261419;28;20056;-71
2023/02/21 09:11:58;;;;;;;59.67;34.03;;;;;;;;;;6265709;28;20092;-71
2023/02/21 09:14:59;;;;;;;55.88;33.00;;;;;;;;;;6266941;28;20088;-70
2023/02/21 09:18:01;;;;;;;58.58;35.13;;;;;;;;;;6266730;28;20053;-70
2023/02/21 09:21:03;;;;;;;59.30;34.15;;;;;;;;;;6268376;28;20053;-71
2023/02/21 09:24:05;;;;;;;60.05;35.08;;;;;;;;;;6269695;28;20329;-71
2023/02/21 09:27:08;;;;;;;59.25;34.83;;;;;;;;;;6265152;28;20067;-72
2023/02/21 09:30:12;;;;;;;57.33;35.55;;;;;;;;;;6265102;28;20053;-71
2023/02/21 09:33:15;;;;;;;54.90;33.60;;;;;;;;;;6266814;28;20107;-70
2023/02/21 09:36:22;;;;;;;57.08;34.70;;;;;;;;;;6268309;28;20073;-72
2023/02/21 09:39:24;;;;;;;60.75;34.97;;;;;;;;;;6267128;28;20313;-71
2023/02/21 09:42:29;;;;;;;63.63;35.88;;;;;;;;;;6267422;28;20044;-72
2023/02/21 09:45:33;;;;;;;59.30;34.35;;;;;;;;;;6267216;28;20044;-71
2023/02/21 09:48:34;;;;;;;61.45;36.53;;;;;;;;;;6267375;28;20045;-71
2023/02/21 09:51:40;;;;;;;61.17;36.80;;;;;;;;;;6266984;28;20051;-71
2023/02/21 09:54:46;;;;;;;58.35;35.03;;;;;;;;;;6267586;28;20090;-72
2023/02/21 09:57:49;;;;;;;59.05;36.95;;;;;;;;;;6266492;28;20052;-70
2023/02/21 10:00:51;;;;;;;60.00;36.40;;;;;;;;;;6267106;28;20063;-71
2023/02/21 10:04:03;;;;;;;57.35;34.85;;;;;;;;;;6265820;28;20122;-69
2023/02/21 10:07:12;;;;;;;63.40;37.33;;;;;;;;;;6265662;28;20121;-71
2023/02/21 10:10:17;;;;;;;59.47;36.05;;;;;;;;;;6265604;28;20057;-72
2023/02/21 10:13:32;;;;;;;62.22;35.45;;;;;;;;;;6266279;28;20049;-72
2023/02/21 10:16:37;;;;;;;63.90;36.95;;;;;;;;;;6265574;28;20171;-71
2023/02/21 10:19:42;;;;;;;61.92;36.22;;;;;;;;;;6264229;28;20148;-72
2023/02/21 10:22:46;;;;;;;57.25;34.97;;;;;;;;;;6265737;28;20060;-70
2023/02/21 10:25:48;;;;;;;60.85;36.03;;;;;;;;;;6266914;28;20049;-72
2023/02/21 10:28:52;;;;;;;58.30;36.15;;;;;;;;;;6264261;28;20056;-71
2023/02/21 10:31:57;;;;;;;56.65;36.25;;;;;;;;;;6266566;28;20052;-71
2023/02/21 10:35:00;;;;;;;55.63;35.90;;;;;;;;;;6263042;28;20060;-71
2023/02/21 10:38:04;;;;;;;54.75;36.10;;;;;;;;;;6267715;28;20049;-71
2023/02/21 10:41:07;;;;;;;54.72;35.05;;;;;;;;;;6265105;28;20084;-71
2023/02/21 10:44:13;;;;;;;62.08;37.53;;;;;;;;;;6263193;28;20059;-71
2023/02/21 10:47:19;;;;;;;63.05;38.30;;;;;;;;;;6262736;28;20045;-72
2023/02/21 10:50:41;;;;;;;58.17;37.25;;;;;;;;;;6267121;28;21024;-72
2023/02/21 10:53:44;;;;;;;58.70;38.35;;;;;;;;;;6264149;28;20108;-71
2023/02/21 10:56:46;;;;;;;64.05;38.67;;;;;;;;;;6266941;28;20057;-70
2023/02/21 10:59:49;;;;;;;69.10;39.95;;;;;;;;;;6264968;28;20317;-71
2023/02/21 11:02:55;;;;;;;59.42;37.83;;;;;;;;;;6264054;28;20041;-72
2023/02/21 11:05:57;;;;;;;60.33;37.22;;;;;;;;;;6265578;28;20232;-71
2023/02/21 11:09:00;;;;;;;58.72;36.78;;;;;;;;;;6263566;28;20125;-72
2023/02/21 11:12:05;;;;;;;59.55;37.58;;;;;;;;;;6266721;28;20059;-71
2023/02/21 11:15:18;;;;;;;60.15;37.45;;;;;;;;;;6264918;28;20117;-72
2023/02/21 11:18:24;;;;;;;62.35;39.25;;;;;;;;;;6264963;28;20056;-72
2023/02/21 11:21:26;;;;;;;60.35;37.03;;;;;;;;;;6262584;28;20345;-71
2023/02/21 11:24:27;;;;;;;60.05;37.88;;;;;;;;;;6264557;28;20144;-71
2023/02/21 11:27:31;;;;;;;59.97;37.33;;;;;;;;;;6263312;28;20052;-70
2023/02/21 11:30:36;;;;;;;55.50;36.00;;;;;;;;;;6265173;28;20351;-71
2023/02/21 11:33:40;;;;;;;57.42;35.72;;;;;;;;;;6263164;28;20049;-72
2023/02/21 11:36:42;;;;;;;;;;;;;;;;;;6268461;28;20060;-73
2023/02/21 11:39:50;;;;;;;37.95;26.02;;;;;;;;;;6262521;28;19975;-73
2023/02/21 11:42:52;;;;;;;38.70;25.85;;;;;;;;;;6265201;28;20333;-73
2023/02/21 11:46:18;;;;;;;34.58;23.67;;;;;;;;;;6264350;28;20040;-74
2023/02/21 11:49:24;;;;;;;41.50;26.02;;;;;;;;;;6260793;28;20061;-72
2023/02/21 11:52:28;;;;;;;40.40;25.25;;;;;;;;;;6263898;28;20104;-73
2023/02/21 11:55:30;;;;;;;38.08;24.88;;;;;;;;;;6266004;28;20045;-75
2023/02/21 11:58:36;;;;;;;30.88;21.15;;;;;;;;;;6258727;28;20297;-75
2023/02/21 12:01:45;;;;;;;34.08;21.40;;;;;;;;;;6263058;28;20052;-75
2023/02/21 12:04:57;;;;;;;31.60;21.73;;;;;;;;;;6261819;28;20061;-76
2023/02/21 12:08:12;;;;;;;41.45;22.73;;;;;;;;;;6261951;28;20045;-75
2023/02/21 12:11:27;;;;;;;31.48;20.52;;;;;;;;;;6261185;28;20116;-76
2023/02/21 12:14:38;;;;;;;25.63;17.20;;;;;;;;;;6262771;28;20122;-75
2023/02/21 12:17:52;;;;;;;24.95;17.10;;;;;;;;;;6262203;28;20049;-73
2023/02/21 12:21:04;;;;;;;27.75;16.48;;;;;;;;;;6263927;28;20060;-73
2023/02/21 12:24:18;;;;;;;27.10;17.75;;;;;;;;;;6263682;28;20060;-73
2023/02/21 12:27:25;;;;;;;24.10;16.73;;;;;;;;;;6262237;28;20295;-71
2023/02/21 12:30:38;;;;;;;24.48;15.63;;;;;;;;;;6262964;28;20126;-72
2023/02/21 12:33:49;;;;;;;24.15;16.08;;;;;;;;;;6263205;28;20210;-73
2023/02/21 12:36:59;;;;;;;23.88;16.45;;;;;;;;;;6265295;28;20049;-74
2023/02/21 12:40:14;;;;;;;30.05;17.80;;;;;;;;;;6261259;28;20061;-74
2023/02/21 12:43:32;;;;;;;25.45;17.00;;;;;;;;;;6261821;28;20053;-76
2023/02/21 12:46:36;;;;;;;24.90;16.90;;;;;;;;;;6265715;28;20333;-74
2023/02/21 12:49:44;;;;;;;26.40;16.63;;;;;;;;;;6265499;28;20146;-73
2023/02/21 12:52:57;;;;;;;27.55;17.45;;;;;;;;;;6267960;28;20099;-72
2023/02/21 12:56:04;;;;;;;24.75;16.15;;;;;;;;;;6267210;28;20144;-72
2023/02/21 12:59:11;;;;;;;26.30;16.50;;;;;;;;;;6265804;28;20061;-73
2023/02/21 13:02:21;;;;;;;23.98;16.45;;;;;;;;;;6266153;28;20053;-71
2023/02/21 13:05:32;;;;;;;23.38;16.33;;;;;;;;;;6265144;28;20049;-72
2023/02/21 13:08:36;;;;;;;24.52;16.70;;;;;;;;;;6268162;28;20045;-72
2023/02/21 13:11:41;;;;;;;25.50;15.18;;;;;;;;;;6268325;28;20300;-71
2023/02/21 13:14:51;;;;;;;23.20;16.20;;;;;;;;;;6267412;28;20060;-71
2023/02/21 13:17:58;;;;;;;28.55;17.58;;;;;;;;;;6266284;28;20060;-71
2023/02/21 13:21:08;;;;;;;22.50;15.80;;;;;;;;;;6267098;28;20059;-73
2023/02/21 13:24:40;;;;;;;27.92;16.08;;;;;;;;;;6266885;28;20218;-73
2023/02/21 13:28:01;;;;;;;24.30;15.20;;;;;;;;;;6267900;28;20055;-73
2023/02/21 13:31:04;;;;;;;23.50;15.05;;;;;;;;;;6264936;28;20115;-72
2023/02/21 13:34:08;;;;;;;24.95;16.25;;;;;;;;;;6265612;28;20376;-72
2023/02/21 13:37:16;;;;;;;;;;;;;;;;;;6267114;28;20063;-72
2023/02/21 13:40:22;;;;;;;23.58;14.80;;;;;;;;;;6267669;28;19928;-71
2023/02/21 13:43:26;;;;;;;21.65;14.98;;;;;;;;;;6268305;28;20053;-71
2023/02/21 13:47:09;;;;;;;26.38;17.50;;;;;;;;;;6266578;28;20056;-71
2023/02/21 13:50:44;;;;;;;27.25;15.85;;;;;;;;;;6194979;28;20057;-72
2023/02/21 13:54:08;;;;;;;26.77;16.95;;;;;;;;;;6191504;28;20062;-72
2023/02/21 13:57:28;;;;;;;;;;;;;;;;;;6187648;28;21286;-72
2023/02/21 14:00:48;;;;;;;25.02;15.88;;;;;;;;;;6188326;28;19926;-71
2023/02/21 14:03:50;;;;;;;22.27;15.60;;;;;;;;;;6184806;28;20066;-71
2023/02/21 14:06:56;;;;;;;22.42;14.90;;;;;;;;;;6191091;28;20838;-72
2023/02/21 14:09:59;;;;;;;23.20;15.88;;;;;;;;;;6191157;28;20050;-73
2023/02/21 14:13:04;;;;;;;21.90;15.68;;;;;;;;;;6190394;28;20125;-72
2023/02/21 14:16:16;;;;;;;24.35;16.63;;;;;;;;;;6192802;28;20058;-74
2023/02/21 14:19:22;;;;;;;26.85;16.50;;;;;;;;;;6191247;28;20074;-73
2023/02/21 14:22:27;;;;;;;21.27;15.13;;;;;;;;;;6189835;28;20262;-73
2023/02/21 14:25:33;;;;;;;25.15;16.92;;;;;;;;;;6230970;28;20059;-72
2023/02/21 14:29:04;;;;;;;22.98;14.95;;;;;;;;;;6264754;28;20069;-72
2023/02/21 14:32:24;;;;;;;21.83;14.95;;;;;;;;;;6253106;28;20047;-71
2023/02/21 14:35:29;;;;;;;147.07;84.25;;;;;;;;;;6265498;28;20048;-73
2023/02/21 14:38:37;;;;;;;56.22;35.47;;;;;;;;;;6270564;28;20112;-73
2023/02/21 14:41:53;;;;;;;31.08;21.38;;;;;;;;;;6263978;28;20095;-74
2023/02/21 14:45:08;;;;;;;30.30;19.23;;;;;;;;;;6264757;28;20056;-74
2023/02/21 14:48:47;;;;;;;43.47;26.95;;;;;;;;;;6266175;28;20071;-75
2023/02/21 14:52:02;;;;;;;37.22;25.65;;;;;;;;;;6268926;28;20041;-71
2023/02/21 14:55:53;;;;;;;27.00;17.15;;;;;;;;;;6264921;28;20168;-73
2023/02/21 14:59:18;;;;;;;25.70;17.02;;;;;;;;;;6263328;28;20088;-75
2023/02/21 15:02:26;;;;;;;25.50;17.98;;;;;;;;;;6263685;28;20100;-75
2023/02/21 15:05:32;;;;;;;31.30;17.83;;;;;;;;;;6263772;28;20064;-73
2023/02/21 15:08:42;;;;;;;28.17;17.17;;;;;;;;;;6262075;28;20124;-74
2023/02/21 15:11:44;;;;;;;33.30;19.63;;;;;;;;;;6261708;28;20124;-74
2023/02/21 15:14:50;;;;;;;31.20;19.33;;;;;;;;;;6265973;28;20124;-73
2023/02/21 15:18:02;;;;;;;29.77;19.05;;;;;;;;;;6262536;28;20065;-73
2023/02/21 15:21:07;;;;;;;28.40;18.55;;;;;;;;;;6263609;28;20058;-73
2023/02/21 15:24:13;;;;;;;30.80;18.65;;;;;;;;;;6263346;28;20129;-74
2023/02/21 15:27:15;;;;;;;27.80;18.38;;;;;;;;;;6261639;28;20221;-73
2023/02/21 15:30:21;;;;;;;28.42;17.88;;;;;;;;;;6264620;28;20064;-76
2023/02/21 15:33:25;;;;;;;25.23;18.27;;;;;;;;;;6262500;28;20364;-73
2023/02/21 15:36:27;;;;;;;26.60;18.10;;;;;;;;;;6264766;28;20133;-73
2023/02/21 15:39:31;;;;;;;33.10;18.17;;;;;;;;;;6263970;28;20345;-74
2023/02/21 15:42:35;;;;;;;30.45;19.50;;;;;;;;;;6262006;28;20107;-73
2023/02/21 15:45:43;;;;;;;31.05;20.67;;;;;;;;;;6264514;28;20052;-74
2023/02/21 15:48:45;;;;;;;31.25;19.08;;;;;;;;;;6261190;28;20102;-74
2023/02/21 15:51:47;;;;;;;31.15;19.15;;;;;;;;;;6263447;28;20116;-74
2023/02/21 15:54:49;;;;;;;26.67;18.65;;;;;;;;;;6265403;28;20096;-74
2023/02/21 15:57:58;;;;;;;29.70;20.10;;;;;;;;;;6262098;28;20111;-74
2023/02/21 16:01:07;;;;;;;33.58;20.08;;;;;;;;;;6267579;28;20068;-74
2023/02/21 16:04:18;;;;;;;33.35;20.48;;;;;;;;;;6264053;28;20268;-74
2023/02/21 16:07:22;;;;;;;32.40;20.48;;;;;;;;;;6263265;28;20509;-73
2023/02/21 16:10:24;;;;;;;29.80;19.85;;;;;;;;;;6263245;28;20288;-74
2023/02/21 16:13:26;;;;;;;35.65;19.30;;;;;;;;;;6262179;28;20064;-73
2023/02/21 16:16:34;;;;;;;33.67;20.48;;;;;;;;;;6262979;28;20106;-71
2023/02/21 16:19:35;;;;;;;35.30;19.30;;;;;;;;;;6263110;28;20061;-73
2023/02/21 16:22:38;;;;;;;35.28;19.98;;;;;;;;;;6262980;28;20110;-72
2023/02/21 16:25:55;;;;;;;32.63;20.33;;;;;;;;;;6260771;28;20049;-73
2023/02/21 16:28:58;;;;;;;35.55;21.88;;;;;;;;;;6261795;28;20649;-73
2023/02/21 16:32:01;;;;;;;94.28;61.70;;;;;;;;;;6264157;28;20103;-74
2023/02/21 16:35:03;;;;;;;152.52;101.43;;;;;;;;;;6261943;28;20059;-72
2023/02/21 16:38:07;;;;;;;41.53;25.45;;;;;;;;;;6262182;28;20117;-73
2023/02/21 16:41:12;;;;;;;34.58;20.70;;;;;;;;;;6261845;28;20053;-73
2023/02/21 16:44:13;;;;;;;34.35;20.73;;;;;;;;;;6261039;28;20175;-73
2023/02/21 16:47:19;;;;;;;34.15;19.60;;;;;;;;;;6263030;28;20111;-73
2023/02/21 16:50:23;;;;;;;36.65;21.92;;;;;;;;;;6265741;28;20045;-74
2023/02/21 16:53:25;;;;;;;43.78;21.13;;;;;;;;;;6265614;28;20099;-74
2023/02/21 16:56:27;;;;;;;35.58;21.15;;;;;;;;;;6261556;28;20353;-72
2023/02/21 16:59:29;;;;;;;32.42;20.88;;;;;;;;;;6265839;28;20194;-73
2023/02/21 17:02:32;;;;;;;37.30;21.55;;;;;;;;;;6265479;28;20050;-74
2023/02/21 17:05:34;;;;;;;35.70;21.00;;;;;;;;;;6261951;28;20099;-74
2023/02/21 17:08:36;;;;;;;40.55;21.70;;;;;;;;;;6264686;28;20471;-73
2023/02/21 17:11:38;;;;;;;34.55;20.83;;;;;;;;;;6263680;28;20057;-74
2023/02/21 17:14:39;;;;;;;28.50;19.55;;;;;;;;;;6262284;28;20072;-71
2023/02/21 17:17:42;;;;;;;31.63;20.73;;;;;;;;;;6262865;28;20049;-73
2023/02/21 17:20:44;;;;;;;32.67;20.43;;;;;;;;;;6262306;28;20124;-73
2023/02/21 17:23:46;;;;;;;41.55;21.73;;;;;;;;;;6260968;28;20056;-73
2023/02/21 17:26:48;;;;;;;40.53;22.90;;;;;;;;;;6262059;28;20073;-74
2023/02/21 17:29:49;;;;;;;35.42;21.58;;;;;;;;;;6261598;28;20231;-77
2023/02/21 17:32:53;;;;;;;35.33;20.60;;;;;;;;;;6264219;28;20056;-74
2023/02/21 17:35:54;;;;;;;35.08;22.00;;;;;;;;;;6267681;28;20048;-78
2023/02/21 17:38:57;;;;;;;30.45;19.95;;;;;;;;;;6267624;28;20111;-78
2023/02/21 17:41:58;;;;;;;35.63;20.00;;;;;;;;;;6270434;28;20041;-78
2023/02/21 17:45:01;;;;;;;33.88;19.75;;;;;;;;;;6272439;28;20057;-77
2023/02/21 17:48:04;;;;;;;32.92;18.92;;;;;;;;;;6270314;28;20110;-81
2023/02/21 17:51:06;;;;;;;;;;;;;;;;;;6270086;28;20129;-77
2023/02/21 17:54:08;;;;;;;32.05;19.27;;;;;;;;;;6271079;28;19967;-78
2023/02/21 17:57:10;;;;;;;30.60;18.73;;;;;;;;;;6266219;28;20049;-79
2023/02/21 18:00:19;;;;;;;34.60;21.27;;;;;;;;;;6266397;28;20053;-77
2023/02/21 18:03:23;;;;;;;38.40;21.67;;;;;;;;;;6270327;28;20045;-77
2023/02/21 18:06:25;;;;;;;37.25;21.95;;;;;;;;;;6269513;28;20340;-77
2023/02/21 18:09:27;;;;;;;37.08;21.45;;;;;;;;;;6262894;28;20061;-76
2023/02/21 18:12:29;;;;;;;40.40;23.52;;;;;;;;;;6264298;28;20075;-74
2023/02/21 18:15:30;;;;;;;38.00;22.40;;;;;;;;;;6259895;28;20058;-77
2023/02/21 18:18:34;;;;;;;38.92;22.67;;;;;;;;;;6266272;28;20111;-78
2023/02/21 18:21:39;;;;;;;37.80;23.25;;;;;;;;;;6256605;28;20064;-76
2023/02/21 18:24:41;;;;;;;38.83;23.17;;;;;;;;;;6241897;28;21317;-79
2023/02/21 18:27:43;;;;;;;40.22;23.30;;;;;;;;;;6240557;28;20352;-74
2023/02/21 18:30:45;;;;;;;39.03;23.38;;;;;;;;;;6240847;28;20383;-74
2023/02/21 18:33:51;;;;;;;36.05;23.10;;;;;;;;;;6249421;28;20188;-77
2023/02/21 18:36:54;;;;;;;39.90;23.42;;;;;;;;;;6268288;28;20356;-73
2023/02/21 18:39:56;;;;;;;38.53;24.38;;;;;;;;;;6271998;28;20075;-79
2023/02/21 18:42:59;;;;;;;40.28;24.45;;;;;;;;;;6269196;28;20056;-80
2023/02/21 18:46:01;;;;;;;40.75;25.08;;;;;;;;;;6269914;28;20091;-76
2023/02/21 18:49:04;;;;;;;43.72;25.63;;;;;;;;;;6267945;28;20049;-79
2023/02/21 18:52:07;;;;;;;41.58;25.10;;;;;;;;;;6268910;28;20313;-80
2023/02/21 18:55:11;;;;;;;43.92;25.40;;;;;;;;;;6268052;28;20309;-78
2023/02/21 18:58:13;;;;;;;40.22;24.52;;;;;;;;;;6268563;28;20049;-79
2023/02/21 19:01:17;;;;;;;42.53;25.42;;;;;;;;;;6269047;28;20147;-79
2023/02/21 19:04:20;;;;;;;43.45;26.20;;;;;;;;;;6270696;28;20053;-79
2023/02/21 19:07:23;;;;;;;44.45;25.42;;;;;;;;;;6267372;28;20063;-80
2023/02/21 19:10:26;;;;;;;44.67;26.42;;;;;;;;;;6267524;28;20067;-76
2023/02/21 19:13:27;;;;;;;42.90;25.67;;;;;;;;;;6268820;28;20072;-73
2023/02/21 19:16:29;;;;;;;46.55;25.77;;;;;;;;;;6266322;28;20052;-78
2023/02/21 19:19:32;;;;;;;44.40;26.25;;;;;;;;;;6266421;28;20232;-74
2023/02/21 19:22:34;;;;;;;43.53;27.25;;;;;;;;;;6270291;28;20157;-76
2023/02/21 19:25:36;;;;;;;49.47;27.50;;;;;;;;;;6269421;28;20049;-72
2023/02/21 19:28:39;;;;;;;50.92;27.42;;;;;;;;;;6270319;28;20359;-72
2023/02/21 19:31:41;;;;;;;48.67;28.08;;;;;;;;;;6266811;28;20120;-72
2023/02/21 19:34:44;;;;;;;48.40;27.45;;;;;;;;;;6269302;28;20122;-71
2023/02/21 19:37:46;;;;;;;47.13;26.35;;;;;;;;;;6269339;28;20064;-70
2023/02/21 19:40:48;;;;;;;43.58;25.95;;;;;;;;;;6270974;28;20053;-71
2023/02/21 19:43:49;;;;;;;46.95;28.17;;;;;;;;;;6262825;28;20052;-72
2023/02/21 19:46:51;;;;;;;46.13;28.98;;;;;;;;;;6265185;28;20057;-73
2023/02/21 19:49:54;;;;;;;46.63;27.30;;;;;;;;;;6265170;28;20067;-73
2023/02/21 19:52:58;;;;;;;43.77;27.83;;;;;;;;;;6268741;28;20298;-71
2023/02/21 19:56:01;;;;;;;47.03;28.33;;;;;;;;;;6267115;28;20337;-71
2023/02/21 19:59:02;;;;;;;50.08;27.70;;;;;;;;;;6269230;28;20215;-70
2023/02/21 20:02:05;;;;;;;45.25;26.60;;;;;;;;;;6267020;28;20045;-72
2023/02/21 20:05:08;;;;;;;47.83;27.27;;;;;;;;;;6266836;28;20123;-73
2023/02/21 20:08:10;;;;;;;45.10;26.63;;;;;;;;;;6266095;28;20049;-71
2023/02/21 20:11:12;;;;;;;46.90;26.70;;;;;;;;;;6267544;28;20333;-72